Time;durP1;ratioP1;P1;durP2;ratioP2;P2;SDS_P1;SDS_P2;PMS_P1;PMS_P2;Temp;Humidity;BMP_temperature;BMP_pressure;BME280_temperature;BME280_humidity;BME280_pressure;Samples;Min_cycle;Max_cycle;Signal;HPM_P1;HPM_P2
2020/12/24 00:02:22;;;;;;;0.50;0.30;;;;;;;11.67;100.00;97606.00;5065761;28;20201;-70
2020/12/24 00:04:49;;;;;;;0.60;0.30;;;;;;;11.73;100.00;97616.66;5066425;28;20239;-70
2020/12/24 00:07:16;;;;;;;1.33;0.50;;;;;;;11.69;100.00;97622.66;5072702;28;20199;-70
2020/12/24 00:09:44;;;;;;;0.63;0.30;;;;;;;11.93;100.00;97631.47;5088702;28;20687;-70
2020/12/24 00:12:11;;;;;;;0.70;0.30;;;;;;;11.84;100.00;97629.31;5081287;28;20561;-71
2020/12/24 00:14:39;;;;;;;0.77;0.33;;;;;;;11.95;100.00;97612.53;5077629;28;20217;-72
2020/12/24 00:17:06;;;;;;;0.33;0.33;;;;;;;12.01;100.00;97608.19;5064744;28;20224;-70
2020/12/24 00:19:32;;;;;;;0.43;0.43;;;;;;;12.00;100.00;97619.94;5080769;28;20270;-73
2020/12/24 00:21:59;;;;;;;0.50;0.33;;;;;;;11.89;100.00;97621.44;5083473;28;20257;-72
2020/12/24 00:24:26;;;;;;;0.53;0.30;;;;;;;11.93;100.00;97623.44;5084770;28;20225;-72
2020/12/24 00:26:53;;;;;;;0.30;0.30;;;;;;;11.88;100.00;97622.50;5082662;28;20207;-71
2020/12/24 00:29:20;;;;;;;1.70;0.20;;;;;;;11.85;100.00;97632.81;5065363;28;20204;-72
2020/12/24 00:31:47;;;;;;;0.30;0.30;;;;;;;11.80;100.00;97628.09;5076192;28;20204;-73
2020/12/24 00:34:14;;;;;;;0.33;0.33;;;;;;;11.95;100.00;97628.59;5080706;28;20238;-70
2020/12/24 00:36:41;;;;;;;0.20;0.20;;;;;;;11.78;100.00;97639.00;5075106;28;20197;-73
2020/12/24 00:39:08;;;;;;;0.30;0.30;;;;;;;11.95;100.00;97654.53;5082873;28;20210;-71
2020/12/24 00:41:34;;;;;;;0.50;0.40;;;;;;;11.72;100.00;97631.06;5075286;28;20603;-71
2020/12/24 00:44:01;;;;;;;0.50;0.37;;;;;;;11.83;100.00;97625.81;5071144;28;20222;-72
2020/12/24 00:46:28;;;;;;;0.30;0.30;;;;;;;11.68;100.00;97629.00;5066959;28;20207;-71
2020/12/24 00:48:56;;;;;;;0.60;0.20;;;;;;;11.38;100.00;97620.75;5085099;28;20553;-71
2020/12/24 00:51:22;;;;;;;0.73;0.53;;;;;;;11.25;100.00;97631.50;5086620;28;20202;-74
2020/12/24 00:53:49;;;;;;;0.20;0.20;;;;;;;10.99;100.00;97639.66;5081899;28;20234;-73
2020/12/24 00:56:16;;;;;;;0.50;0.37;;;;;;;10.96;100.00;97637.44;5082650;28;20207;-73
2020/12/24 00:58:43;;;;;;;0.23;0.23;;;;;;;10.89;100.00;97649.97;5074114;28;20234;-72
2020/12/24 01:01:10;;;;;;;0.20;0.20;;;;;;;10.88;100.00;97656.34;5084624;28;20199;-74
2020/12/24 01:03:36;;;;;;;0.20;0.20;;;;;;;10.88;100.00;97655.56;5086178;28;20227;-72
2020/12/24 01:06:04;;;;;;;0.60;0.33;;;;;;;10.81;100.00;97660.91;5091345;28;20309;-71
2020/12/24 01:08:31;;;;;;;0.53;0.33;;;;;;;10.89;100.00;97656.13;5086854;28;20649;-71
2020/12/24 01:10:58;;;;;;;3.03;0.40;;;;;;;10.84;100.00;97674.66;5084617;28;20772;-71
2020/12/24 01:13:25;;;;;;;0.77;0.37;;;;;;;10.80;100.00;97684.09;5074215;28;20230;-71
2020/12/24 01:15:52;;;;;;;0.73;0.40;;;;;;;10.80;100.00;97675.28;5088912;28;20684;-71
2020/12/24 01:18:18;;;;;;;1.67;0.30;;;;;;;10.75;100.00;97677.75;5085790;28;20226;-71
2020/12/24 01:20:45;;;;;;;0.30;0.30;;;;;;;10.68;100.00;97672.44;5092365;28;20201;-71
2020/12/24 01:23:13;;;;;;;0.30;0.30;;;;;;;10.61;100.00;97673.47;5074168;28;20282;-72
2020/12/24 01:25:40;;;;;;;0.30;0.30;;;;;;;10.54;100.00;97668.16;5081592;28;20201;-71
2020/12/24 01:28:07;;;;;;;4.60;0.60;;;;;;;10.60;100.00;97666.50;5085638;28;20199;-71
2020/12/24 01:30:33;;;;;;;2.43;0.47;;;;;;;10.53;100.00;97682.53;5073682;28;20207;-71
2020/12/24 01:33:00;;;;;;;2.17;0.50;;;;;;;10.35;100.00;97678.88;5084952;28;20234;-71
2020/12/24 01:35:27;;;;;;;0.67;0.30;;;;;;;10.36;100.00;97689.31;5093958;28;20210;-72
2020/12/24 01:37:54;;;;;;;1.13;0.40;;;;;;;10.49;100.00;97689.31;5080984;28;20227;-71
2020/12/24 01:40:21;;;;;;;1.90;0.30;;;;;;;10.43;100.00;97692.81;5082569;28;20209;-72
2020/12/24 01:42:48;;;;;;;0.90;0.60;;;;;;;10.44;100.00;97696.28;5075746;28;20235;-71
2020/12/24 01:45:15;;;;;;;1.43;0.40;;;;;;;10.39;100.00;97696.06;5073973;28;20253;-71
2020/12/24 01:47:42;;;;;;;1.40;0.43;;;;;;;10.15;100.00;97694.88;5071212;28;20196;-74
2020/12/24 01:50:09;;;;;;;1.03;0.70;;;;;;;10.30;100.00;97716.81;5084368;28;20218;-71
2020/12/24 01:52:37;;;;;;;0.60;0.50;;;;;;;10.38;100.00;97721.94;5076575;28;20202;-71
2020/12/24 01:55:06;;;;;;;1.70;0.37;;;;;;;10.35;100.00;97719.69;5077255;28;20206;-71
2020/12/24 01:57:33;;;;;;;1.07;0.40;;;;;;;10.35;100.00;97729.53;5081465;28;20219;-71
2020/12/24 02:00:04;;;;;;;1.27;0.50;;;;;;;10.30;100.00;97724.00;5059401;28;20278;-71
2020/12/24 02:02:30;;;;;;;0.60;0.43;;;;;;;10.19;100.00;97709.44;5066704;28;20197;-71
2020/12/24 02:04:57;;;;;;;0.20;0.20;;;;;;;10.35;100.00;97698.34;5090779;28;20198;-72
2020/12/24 02:07:24;;;;;;;0.80;0.40;;;;;;;10.40;100.00;97653.19;5088217;28;20209;-71
2020/12/24 02:09:51;;;;;;;2.23;0.40;;;;;;;10.48;100.00;97661.00;5085515;28;20582;-71
2020/12/24 02:12:19;;;;;;;0.60;0.40;;;;;;;10.29;100.00;97685.00;5069775;28;20202;-71
2020/12/24 02:14:46;;;;;;;0.73;0.40;;;;;;;10.31;100.00;97653.63;5072850;28;20231;-75
2020/12/24 02:17:13;;;;;;;0.20;0.20;;;;;;;10.27;100.00;97657.75;5076713;28;21444;-73
2020/12/24 02:19:40;;;;;;;0.83;0.30;;;;;;;10.17;100.00;97649.34;5081718;28;20198;-74
2020/12/24 02:22:09;;;;;;;2.47;0.83;;;;;;;10.18;100.00;97592.31;5085081;28;20202;-71
2020/12/24 02:24:36;;;;;;;0.83;0.30;;;;;;;10.14;100.00;97586.59;5078007;28;20224;-73
2020/12/24 02:27:04;;;;;;;1.17;1.07;;;;;;;10.05;100.00;97603.03;5080305;28;20236;-71
2020/12/24 02:29:31;;;;;;;1.80;0.40;;;;;;;10.07;100.00;97583.13;5068290;28;20205;-71
2020/12/24 02:31:57;;;;;;;0.63;0.30;;;;;;;10.07;100.00;97577.78;5077564;28;20685;-71
2020/12/24 02:34:24;;;;;;;1.17;0.50;;;;;;;9.88;100.00;97586.59;5082102;28;20225;-75
2020/12/24 02:36:51;;;;;;;0.87;0.20;;;;;;;9.85;100.00;97587.00;5082474;28;20201;-71
2020/12/24 02:39:19;;;;;;;1.70;0.30;;;;;;;9.81;100.00;97587.63;5083381;28;20622;-71
2020/12/24 02:41:45;;;;;;;0.53;0.40;;;;;;;9.73;100.00;97580.66;5072168;28;20214;-71
2020/12/24 02:44:12;;;;;;;1.77;0.43;;;;;;;9.75;100.00;97583.94;5066456;28;20226;-72
2020/12/24 02:46:41;;;;;;;0.60;0.43;;;;;;;9.77;100.00;97591.72;5076203;28;20193;-73
2020/12/24 02:49:08;;;;;;;1.00;0.40;;;;;;;9.69;100.00;97584.75;5076282;28;20202;-73
2020/12/24 02:51:35;;;;;;;0.30;0.23;;;;;;;9.75;100.00;97583.13;5077968;28;20662;-74
2020/12/24 02:54:02;;;;;;;0.83;0.30;;;;;;;9.70;100.00;97583.72;5083452;28;20220;-73
2020/12/24 02:56:29;;;;;;;2.53;0.20;;;;;;;9.72;100.00;97586.19;5085673;28;20263;-73
2020/12/24 02:58:56;;;;;;;0.20;0.20;;;;;;;9.73;100.00;97591.31;5070817;28;20221;-73
2020/12/24 03:01:23;;;;;;;0.30;0.30;;;;;;;9.66;100.00;97595.84;5080985;28;20201;-74
2020/12/24 03:03:50;;;;;;;1.13;0.30;;;;;;;9.64;100.00;97603.19;5077989;28;20247;-73
2020/12/24 03:06:16;;;;;;;0.40;0.20;;;;;;;9.64;100.00;97611.19;5076698;28;20198;-73
2020/12/24 03:08:43;;;;;;;0.30;0.30;;;;;;;9.66;100.00;97613.66;5069092;28;20288;-73
2020/12/24 03:11:10;;;;;;;1.10;0.40;;;;;;;9.67;100.00;97617.97;5079090;28;20674;-73
2020/12/24 03:13:38;;;;;;;1.03;0.30;;;;;;;9.64;100.00;97621.03;5079760;28;20226;-72
2020/12/24 03:16:04;;;;;;;0.60;0.20;;;;;;;9.63;100.00;97636.19;5089471;28;20197;-73
2020/12/24 03:18:31;;;;;;;1.30;0.40;;;;;;;9.62;100.00;97621.25;5073417;28;20225;-74
2020/12/24 03:20:58;;;;;;;0.40;0.40;;;;;;;9.74;100.00;97624.94;5079659;28;20202;-73
2020/12/24 03:23:25;;;;;;;0.40;0.30;;;;;;;9.73;100.00;97591.31;5076731;28;20232;-73
2020/12/24 03:25:51;;;;;;;0.30;0.30;;;;;;;9.75;100.00;97575.94;5070729;28;20197;-73
2020/12/24 03:28:18;;;;;;;0.43;0.20;;;;;;;9.77;100.00;97573.06;5087659;28;20201;-73
2020/12/24 03:30:46;;;;;;;0.67;0.30;;;;;;;9.52;100.00;97572.88;5081618;28;20547;-73
2020/12/24 03:33:13;;;;;;;0.20;0.20;;;;;;;9.57;100.00;97570.41;5084207;28;20229;-73
2020/12/24 03:35:39;;;;;;;0.50;0.33;;;;;;;9.54;100.00;97573.47;5071779;28;20202;-73
2020/12/24 03:38:06;;;;;;;0.20;0.20;;;;;;;9.52;100.00;97569.38;5070801;28;20559;-71
2020/12/24 03:40:33;;;;;;;0.37;0.20;;;;;;;9.54;100.00;97562.81;5085801;28;20200;-73
2020/12/24 03:43:00;;;;;;;2.23;0.30;;;;;;;9.47;100.00;97571.84;5065153;28;20225;-73
2020/12/24 03:45:27;;;;;;;0.10;0.10;;;;;;;9.49;100.00;97556.50;5079960;28;20531;-73
2020/12/24 03:47:55;;;;;;;0.63;0.20;;;;;;;9.39;100.00;97551.56;5073445;28;20202;-73
2020/12/24 03:50:21;;;;;;;1.40;0.30;;;;;;;9.36;100.00;97541.34;5079272;28;20202;-73
2020/12/24 03:52:48;;;;;;;0.67;0.20;;;;;;;9.11;100.00;97544.78;5082356;28;20225;-73
2020/12/24 03:55:15;;;;;;;1.00;0.40;;;;;;;9.08;100.00;97546.00;5083456;28;20197;-74
2020/12/24 03:57:42;;;;;;;0.87;0.30;;;;;;;8.99;100.00;97563.19;5071259;28;20313;-72
2020/12/24 04:00:08;;;;;;;0.83;0.27;;;;;;;8.93;100.00;97556.00;5086226;28;20207;-73
2020/12/24 04:02:35;;;;;;;0.83;0.30;;;;;;;8.95;100.00;97575.28;5076004;28;20207;-73
2020/12/24 04:05:03;;;;;;;0.63;0.30;;;;;;;8.89;100.00;97586.69;5080703;28;20201;-73
2020/12/24 04:07:30;;;;;;;0.20;0.20;;;;;;;8.84;100.00;97575.03;5079151;28;20204;-70
2020/12/24 04:09:56;;;;;;;3.33;0.60;;;;;;;8.95;100.00;97579.75;5078461;28;20265;-73
2020/12/24 04:12:23;;;;;;;1.13;0.20;;;;;;;8.97;100.00;97577.69;5071629;28;20204;-73
2020/12/24 04:14:50;;;;;;;0.23;0.20;;;;;;;8.95;100.00;97590.41;5081917;28;20217;-73
2020/12/24 04:17:17;;;;;;;0.27;0.23;;;;;;;8.99;100.00;97589.78;5067377;28;20232;-72
2020/12/24 04:19:43;;;;;;;1.07;0.30;;;;;;;9.01;100.00;97589.59;5074498;28;20209;-72
2020/12/24 04:22:11;;;;;;;0.20;0.20;;;;;;;8.93;100.00;97587.94;5073835;28;20201;-72
2020/12/24 04:24:38;;;;;;;0.37;0.30;;;;;;;8.91;100.00;97590.00;5069096;28;20229;-72
2020/12/24 04:27:04;;;;;;;1.13;0.40;;;;;;;9.00;100.00;97591.47;5075497;28;20693;-72
2020/12/24 04:29:31;;;;;;;0.43;0.20;;;;;;;9.12;100.00;97603.16;5067097;28;20672;-73
2020/12/24 04:31:58;;;;;;;0.70;0.30;;;;;;;9.05;100.00;97589.00;5072413;28;20201;-72
2020/12/24 04:34:25;;;;;;;0.30;0.30;;;;;;;9.11;100.00;97590.03;5066282;28;20221;-73
2020/12/24 04:36:51;;;;;;;1.07;0.60;;;;;;;9.16;100.00;97572.44;5069640;28;20212;-73
2020/12/24 04:39:19;;;;;;;0.20;0.13;;;;;;;9.20;100.00;97556.88;5072814;28;20274;-73
2020/12/24 04:41:47;;;;;;;0.87;0.30;;;;;;;9.26;100.00;97577.34;5071672;28;20209;-72
2020/12/24 04:44:15;;;;;;;0.60;0.33;;;;;;;9.17;100.00;97590.06;5071949;28;20232;-73
2020/12/24 04:46:43;;;;;;;2.43;0.30;;;;;;;9.21;100.00;97585.13;5071537;28;20201;-73
2020/12/24 04:49:10;;;;;;;1.03;0.30;;;;;;;9.21;100.00;97580.63;5074669;28;20203;-72
2020/12/24 04:51:37;;;;;;;0.20;0.20;;;;;;;9.22;100.00;97581.44;5066402;28;20196;-73
2020/12/24 04:54:04;;;;;;;0.20;0.20;;;;;;;9.19;100.00;97565.88;5066395;28;20714;-72
2020/12/24 04:56:32;;;;;;;0.87;0.50;;;;;;;9.36;100.00;97562.63;5063637;28;20202;-72
2020/12/24 04:58:59;;;;;;;0.87;0.40;;;;;;;9.27;100.00;97555.03;5061889;28;20221;-72
2020/12/24 05:01:26;;;;;;;0.53;0.30;;;;;;;9.40;100.00;97553.22;5063915;28;20201;-72
2020/12/24 05:03:55;;;;;;;0.43;0.23;;;;;;;9.41;100.00;97543.38;5070812;28;20622;-71
2020/12/24 05:06:22;;;;;;;0.20;0.20;;;;;;;9.37;100.00;97542.97;5065668;28;20233;-72
2020/12/24 05:08:53;;;;;;;0.40;0.33;;;;;;;9.22;100.00;97549.50;5069663;28;20663;-71
2020/12/24 05:11:28;;;;;;;0.77;0.20;;;;;;;9.06;100.00;97545.41;5071425;28;20203;-73
2020/12/24 05:13:56;;;;;;;0.37;0.20;;;;;;;9.04;100.00;97552.75;5073220;28;20887;-72
2020/12/24 05:16:23;;;;;;;1.97;0.30;;;;;;;9.00;100.00;97545.38;5060576;28;20563;-74
2020/12/24 05:18:50;;;;;;;1.60;0.30;;;;;;;8.77;100.00;97547.59;5069336;28;20221;-73
2020/12/24 05:21:31;;;;;;;1.30;0.30;;;;;;;8.65;100.00;97546.50;5074390;28;20671;-72
2020/12/24 05:23:58;;;;;;;0.20;0.20;;;;;;;8.59;100.00;97555.31;5074351;28;20550;-72
2020/12/24 05:26:25;;;;;;;0.60;0.30;;;;;;;8.56;100.00;97548.53;5066259;28;20205;-71
2020/12/24 05:28:52;;;;;;;0.50;0.20;;;;;;;8.48;100.00;97553.22;5074212;28;20201;-72
2020/12/24 05:31:34;;;;;;;1.13;0.30;;;;;;;8.38;100.00;97566.88;5066176;28;20201;-72
2020/12/24 05:34:01;;;;;;;0.27;0.20;;;;;;;8.29;100.00;97557.44;5072792;28;20277;-72
2020/12/24 05:36:28;;;;;;;2.70;0.50;;;;;;;8.25;100.00;97550.88;5074539;28;20283;-71
2020/12/24 05:38:55;;;;;;;2.37;0.33;;;;;;;8.24;100.00;97549.22;5074201;28;20225;-72
2020/12/24 05:41:32;;;;;;;0.73;0.20;;;;;;;8.13;100.00;97549.72;5073850;28;20202;-71
2020/12/24 05:44:00;;;;;;;0.47;0.30;;;;;;;8.06;100.00;97548.88;5074130;28;20217;-70
2020/12/24 05:46:28;;;;;;;0.20;0.20;;;;;;;7.98;100.00;97551.72;5068060;28;20200;-73
2020/12/24 05:48:56;;;;;;;1.83;0.30;;;;;;;8.02;100.00;97547.63;5074097;28;20204;-73
2020/12/24 05:51:23;;;;;;;1.17;0.30;;;;;;;7.94;100.00;97541.66;5084608;28;20201;-74
2020/12/24 05:53:50;;;;;;;0.43;0.30;;;;;;;7.89;100.00;97528.16;5078673;28;20235;-71
2020/12/24 05:56:21;;;;;;;0.47;0.20;;;;;;;7.94;100.00;97531.88;5073476;28;20204;-73
2020/12/24 05:58:49;;;;;;;0.27;0.27;;;;;;;8.00;100.00;97520.44;5066211;22;20283;-73
2020/12/24 06:01:17;;;;;;;0.57;0.23;;;;;;;7.89;100.00;97514.88;5053305;28;20658;-74
2020/12/24 06:04:04;;;;;;;0.77;0.40;;;;;;;7.86;100.00;97513.41;5056120;28;20291;-74
2020/12/24 06:06:42;;;;;;;1.83;0.70;;;;;;;7.80;100.00;97511.56;5053461;28;20209;-73
2020/12/24 06:09:13;;;;;;;1.87;0.40;;;;;;;7.80;100.00;97516.88;5027746;28;20280;-73
2020/12/24 06:11:49;;;;;;;0.60;0.40;;;;;;;7.78;100.00;97516.25;5036860;28;20205;-74
2020/12/24 06:14:32;;;;;;;1.63;0.30;;;;;;;7.91;100.00;97518.97;5032821;28;20322;-74
2020/12/24 06:17:06;;;;;;;1.40;0.30;;;;;;;7.96;100.00;97511.22;5031207;28;20214;-74
2020/12/24 06:19:41;;;;;;;0.73;0.40;;;;;;;8.07;100.00;97510.66;5033712;28;20204;-74
2020/12/24 06:22:08;;;;;;;3.07;0.40;;;;;;;8.09;100.00;97505.16;5029771;28;20281;-74
2020/12/24 06:24:39;;;;;;;1.63;0.53;;;;;;;8.13;100.00;97496.59;5034266;28;20218;-74
2020/12/24 06:27:10;;;;;;;0.77;0.40;;;;;;;8.14;100.00;97503.56;5029134;28;20691;-74
2020/12/24 06:29:40;;;;;;;1.40;0.30;;;;;;;8.19;100.00;97498.47;5032553;28;20222;-74
2020/12/24 06:32:08;;;;;;;1.50;0.47;;;;;;;8.26;100.00;97493.19;5028189;28;20203;-73
2020/12/24 06:34:40;;;;;;;1.83;0.40;;;;;;;8.24;100.00;97495.25;5032741;28;20568;-74
2020/12/24 06:37:15;;;;;;;1.10;0.43;;;;;;;8.25;100.00;97492.41;5029442;28;20222;-73
2020/12/24 06:39:47;;;;;;;2.47;0.57;;;;;;;8.15;100.00;97478.63;5031847;28;20663;-74
2020/12/24 06:42:38;;;;;;;2.90;0.90;;;;;;;8.24;100.00;97468.66;5031958;28;20198;-75
2020/12/24 06:45:06;;;;;;;2.30;0.37;;;;;;;8.14;100.00;97471.69;5021994;28;20605;-76
2020/12/24 06:47:33;;;;;;;2.03;0.40;;;;;;;8.15;100.00;97470.66;5032267;28;20241;-74
2020/12/24 06:50:01;;;;;;;2.60;0.60;;;;;;;8.24;100.00;97480.13;5034494;28;20282;-76
2020/12/24 06:52:29;;;;;;;0.50;0.40;;;;;;;8.19;100.00;97476.38;5033386;28;20206;-74
2020/12/24 06:55:14;;;;;;;0.33;0.33;;;;;;;8.08;100.00;97469.78;5030100;28;20738;-75
2020/12/24 06:57:42;;;;;;;3.90;0.50;;;;;;;8.24;100.00;97472.16;5032775;28;20226;-75
2020/12/24 07:00:20;;;;;;;1.60;0.50;;;;;;;8.29;100.00;97464.41;5031682;28;20697;-76
2020/12/24 07:02:47;;;;;;;4.20;0.70;;;;;;;8.28;100.00;97454.75;5029481;28;20213;-75
2020/12/24 07:05:43;;;;;;;3.03;0.50;;;;;;;8.33;100.00;97452.31;5032537;28;20199;-76
2020/12/24 07:08:10;;;;;;;4.00;0.70;;;;;;;8.33;100.00;97448.88;5036023;28;20222;-76
2020/12/24 07:10:44;;;;;;;3.50;0.70;;;;;;;8.36;100.00;97441.31;5030530;28;20862;-75
2020/12/24 07:13:26;;;;;;;1.37;0.60;;;;;;;8.50;100.00;97450.13;5031383;28;20210;-75
2020/12/24 07:15:53;;;;;;;0.43;0.43;;;;;;;8.55;100.00;97448.50;5031038;28;20199;-77
2020/12/24 07:18:21;;;;;;;2.83;0.40;;;;;;;8.45;100.00;97450.75;5036900;28;20316;-83
2020/12/24 07:20:50;;;;;;;2.60;0.60;;;;;;;8.53;100.00;97441.75;5032713;28;20696;-78
2020/12/24 07:23:28;;;;;;;1.63;0.43;;;;;;;8.68;100.00;97445.84;5032350;28;20217;-78
2020/12/24 07:25:55;;;;;;;1.37;0.60;;;;;;;8.67;100.00;97438.91;5033151;28;20198;-75
2020/12/24 07:28:22;;;;;;;1.20;0.87;;;;;;;8.64;100.00;97435.84;5031136;28;20698;-76
2020/12/24 07:30:59;;;;;;;0.70;0.40;;;;;;;8.57;100.00;97433.16;5031199;28;20629;-75
2020/12/24 07:33:26;;;;;;;4.60;0.93;;;;;;;8.58;100.00;97434.78;5031514;28;20202;-75
2020/12/24 07:35:53;;;;;;;8.37;0.80;;;;;;;8.70;100.00;97438.50;5033947;28;20221;-74
2020/12/24 07:38:21;;;;;;;2.97;0.67;;;;;;;8.77;100.00;97436.66;5029305;28;20276;-73
2020/12/24 07:40:48;;;;;;;4.83;0.67;;;;;;;8.75;100.00;97428.09;5031033;28;20207;-84
2020/12/24 07:43:15;;;;;;;3.37;1.40;;;;;;;8.84;100.00;97421.50;5031242;28;20205;-78
2020/12/24 07:45:42;;;;;;;3.13;0.90;;;;;;;8.90;100.00;97423.38;5031885;28;20289;-75
2020/12/24 07:48:13;;;;;;;4.33;0.93;;;;;;;8.97;100.00;97421.53;5031926;28;20218;-75
2020/12/24 07:50:40;;;;;;;3.03;0.50;;;;;;;8.99;100.00;97429.31;5036390;28;20195;-86
2020/12/24 07:53:10;;;;;;;3.13;0.57;;;;;;;8.99;100.00;97421.34;5051666;28;20205;-84
2020/12/24 07:55:36;;;;;;;6.67;0.77;;;;;;;9.09;100.00;97411.88;5038046;28;20207;-77
2020/12/24 07:58:07;;;;;;;3.03;0.83;;;;;;;9.20;100.00;97418.44;5037564;28;20253;-79
2020/12/24 08:00:41;;;;;;;4.33;0.63;;;;;;;9.23;100.00;97418.84;5034355;28;20581;-76
2020/12/24 08:03:08;;;;;;;2.53;0.65;;;;;;;9.32;100.00;97416.78;5034132;28;20806;-78
2020/12/24 08:05:35;;;;;;;2.20;0.70;;;;;;;9.34;100.00;97406.75;5035678;28;20199;-77
2020/12/24 08:08:02;;;;;;;1.23;0.60;;;;;;;9.59;100.00;97410.41;5032266;28;20614;-75
2020/12/24 08:10:29;;;;;;;2.93;0.70;;;;;;;9.44;100.00;97405.28;5027637;28;20696;-76
2020/12/24 08:13:03;;;;;;;6.40;1.50;;;;;;;9.70;100.00;97404.41;5031732;28;20213;-80
2020/12/24 08:15:32;;;;;;;3.80;0.83;;;;;;;9.70;100.00;97402.56;5030172;28;20244;-81
2020/12/24 08:18:01;;;;;;;5.00;0.60;;;;;;;9.66;100.00;97420.00;5035244;28;20243;-80
2020/12/24 08:20:34;;;;;;;4.87;1.33;;;;;;;9.52;100.00;97413.06;5033677;28;20200;-76
2020/12/24 08:23:10;;;;;;;1.93;0.60;;;;;;;9.68;100.00;97415.28;5031309;28;20208;-76
2020/12/24 08:25:38;;;;;;;1.83;0.70;;;;;;;9.39;100.00;97404.28;5035155;28;20566;-77
2020/12/24 08:28:05;;;;;;;4.37;0.80;;;;;;;9.48;100.00;97401.19;5032024;28;20218;-75
2020/12/24 08:30:31;;;;;;;3.13;0.50;;;;;;;9.52;100.00;97398.91;5024638;28;20205;-78
2020/12/24 08:32:59;;;;;;;2.40;0.50;;;;;;;9.48;100.00;97395.88;5022370;28;20256;-79
2020/12/24 08:35:30;;;;;;;2.40;0.53;;;;;;;9.39;100.00;97396.31;5032484;28;20209;-84
2020/12/24 08:38:12;;;;;;;1.07;0.53;;;;;;;9.49;100.00;97402.03;5031930;28;20234;-77
2020/12/24 08:40:40;;;;;;;1.40;0.40;;;;;;;9.33;100.00;97389.97;5034869;28;20208;-78
2020/12/24 08:43:09;;;;;;;2.40;0.57;;;;;;;9.28;100.00;97396.94;5048291;28;20207;-82
2020/12/24 08:45:43;;;;;;;2.63;0.50;;;;;;;9.32;100.00;97398.16;5058522;28;20226;-79
2020/12/24 08:48:10;;;;;;;1.53;0.40;;;;;;;9.39;100.00;97390.97;5029284;28;20299;-79
2020/12/24 08:50:38;;;;;;;2.03;0.50;;;;;;;9.35;100.00;97398.56;5035438;28;20208;-79
2020/12/24 08:53:05;;;;;;;2.30;0.50;;;;;;;9.18;100.00;97392.03;5031095;28;20203;-82
2020/12/24 08:55:33;;;;;;;0.73;0.50;;;;;;;9.28;100.00;97397.75;5049810;28;20210;-78
2020/12/24 08:58:01;;;;;;;0.93;0.50;;;;;;;9.36;100.00;97412.69;5048073;28;20240;-79
2020/12/24 09:00:27;;;;;;;0.87;0.40;;;;;;;9.44;100.00;97405.28;5035788;28;20228;-78
2020/12/24 09:02:54;;;;;;;1.10;0.40;;;;;;;9.40;100.00;97401.44;5036049;28;20750;-77
2020/12/24 09:05:22;;;;;;;2.60;0.53;;;;;;;9.39;100.00;97393.66;5037455;28;20210;-80
2020/12/24 09:07:49;;;;;;;1.27;0.40;;;;;;;9.38;100.00;97384.81;5036066;28;20246;-79
2020/12/24 09:10:20;;;;;;;1.37;0.40;;;;;;;9.40;100.00;97396.09;5044122;28;20215;-83
2020/12/24 09:12:54;;;;;;;0.33;0.23;;;;;;;9.34;100.00;97396.91;5043340;28;20270;-78
2020/12/24 09:15:26;;;;;;;0.30;0.30;;;;;;;9.54;100.00;97424.31;5045383;28;20654;-80
2020/12/24 09:17:54;;;;;;;0.83;0.30;;;;;;;9.43;100.00;97408.19;5038093;28;20265;-76
2020/12/24 09:20:23;;;;;;;3.70;1.10;;;;;;;9.66;100.00;97417.34;5034559;28;20206;-75
2020/12/24 09:22:50;;;;;;;1.93;0.63;;;;;;;9.72;100.00;97408.50;5037651;28;20219;-77
2020/12/24 09:25:45;;;;;;;1.07;0.40;;;;;;;9.67;100.00;97415.47;5034988;28;20199;-74
2020/12/24 09:28:23;;;;;;;3.17;0.70;;;;;;;9.75;100.00;97407.28;4989152;28;20223;-78
2020/12/24 09:30:52;;;;;;;3.17;0.70;;;;;;;9.78;100.00;97412.16;5040475;28;20262;-77
2020/12/24 09:33:19;;;;;;;2.20;0.60;;;;;;;9.75;100.00;97404.59;5044382;28;20255;-79
2020/12/24 09:35:46;;;;;;;2.13;0.60;;;;;;;9.74;100.00;97409.09;5041000;28;20209;-79
2020/12/24 09:38:13;;;;;;;0.83;0.47;;;;;;;9.99;100.00;97417.22;5033854;28;20242;-73
2020/12/24 09:40:40;;;;;;;2.93;0.63;;;;;;;10.10;100.00;97412.06;5034517;28;20213;-77
2020/12/24 09:43:07;;;;;;;3.00;1.00;;;;;;;10.18;100.00;97420.88;5033891;28;20522;-74
2020/12/24 09:45:35;;;;;;;0.63;0.47;;;;;;;10.23;100.00;97433.34;5033792;28;20341;-73
2020/12/24 09:48:03;;;;;;;1.67;0.60;;;;;;;10.13;100.00;97426.03;5034146;28;20214;-76
2020/12/24 09:50:29;;;;;;;3.10;0.50;;;;;;;9.70;100.00;97429.19;5036857;28;20205;-81
2020/12/24 09:52:56;;;;;;;1.63;0.50;;;;;;;9.94;100.00;97433.03;5037993;28;20211;-77
2020/12/24 09:55:23;;;;;;;2.03;0.57;;;;;;;9.82;100.00;97427.53;5039022;28;20253;-74
2020/12/24 09:57:50;;;;;;;1.50;0.40;;;;;;;9.97;100.00;97440.59;5034551;28;20236;-77
2020/12/24 10:00:17;;;;;;;0.63;0.30;;;;;;;10.08;100.00;97447.97;5037091;28;20207;-78
2020/12/24 10:02:43;;;;;;;0.63;0.57;;;;;;;10.27;100.00;97441.72;5035743;28;20672;-76
2020/12/24 10:05:11;;;;;;;1.27;0.40;;;;;;;10.25;100.00;97430.47;5035766;28;20694;-76
2020/12/24 10:07:38;;;;;;;1.67;0.73;;;;;;;10.41;100.00;97436.09;5034563;28;20220;-72
2020/12/24 10:10:05;;;;;;;0.37;0.30;;;;;;;10.60;100.00;97426.38;5036877;28;20288;-75
2020/12/24 10:12:32;;;;;;;0.60;0.43;;;;;;;10.40;100.00;97444.34;5035950;28;20701;-74
2020/12/24 10:14:59;;;;;;;0.77;0.40;;;;;;;10.32;100.00;97439.25;5035621;28;20236;-78
2020/12/24 10:17:26;;;;;;;0.50;0.40;;;;;;;10.15;100.00;97441.56;5034202;28;20371;-78
2020/12/24 10:19:53;;;;;;;0.23;0.23;;;;;;;10.39;100.00;97435.50;5033920;28;20223;-80
2020/12/24 10:22:21;;;;;;;0.50;0.40;;;;;;;10.46;100.00;97433.63;5035926;28;20207;-75
2020/12/24 10:24:47;;;;;;;0.73;0.30;;;;;;;10.65;100.00;97426.56;5034844;28;20211;-76
2020/12/24 10:27:14;;;;;;;0.23;0.20;;;;;;;10.73;100.00;97440.44;5036992;28;20365;-79
2020/12/24 10:29:41;;;;;;;0.83;0.40;;;;;;;10.72;100.00;97440.66;5036638;28;20234;-79
2020/12/24 10:32:08;;;;;;;0.80;0.40;;;;;;;10.74;100.00;97442.06;5041741;28;20223;-79
2020/12/24 10:34:36;;;;;;;3.97;0.90;;;;;;;10.78;100.00;97456.63;5036693;28;20216;-76
2020/12/24 10:37:03;;;;;;;2.93;0.60;;;;;;;10.64;100.00;97443.56;5033730;28;20204;-77
2020/12/24 10:39:31;;;;;;;0.83;0.40;;;;;;;10.43;100.00;97442.06;5028290;28;20254;-77
2020/12/24 10:41:58;;;;;;;0.60;0.30;;;;;;;10.57;100.00;97443.63;5040339;28;20211;-79
2020/12/24 10:44:25;;;;;;;0.57;0.20;;;;;;;10.70;100.00;97443.53;5037445;28;20471;-78
2020/12/24 10:46:54;;;;;;;1.57;0.50;;;;;;;10.49;100.00;97451.03;5036395;28;20274;-76
2020/12/24 10:49:21;;;;;;;2.20;0.50;;;;;;;10.41;100.00;97451.31;5036493;28;20653;-74
2020/12/24 10:51:48;;;;;;;1.80;0.40;;;;;;;10.32;100.00;97450.75;5038923;28;20669;-78
2020/12/24 10:54:15;;;;;;;1.53;0.37;;;;;;;10.43;100.00;97455.41;5032509;28;20258;-78
2020/12/24 10:56:46;;;;;;;1.47;0.60;;;;;;;10.23;100.00;97459.19;5035927;28;20328;-77
2020/12/24 10:59:13;;;;;;;1.13;0.40;;;;;;;10.23;100.00;97453.03;5032619;28;20232;-76
2020/12/24 11:01:41;;;;;;;2.23;0.40;;;;;;;10.23;100.00;97457.34;5036140;28;20206;-75
2020/12/24 11:04:08;;;;;;;0.60;0.53;;;;;;;10.15;100.00;97456.78;5023552;28;20209;-72
2020/12/24 11:06:35;;;;;;;1.53;0.30;;;;;;;10.34;100.00;97454.00;5032855;28;20212;-75
2020/12/24 11:09:02;;;;;;;0.47;0.30;;;;;;;10.14;100.00;97461.28;5037674;28;20232;-78
2020/12/24 11:11:34;;;;;;;1.47;0.40;;;;;;;10.00;100.00;97459.66;5034350;28;20585;-78
2020/12/24 11:14:02;;;;;;;1.47;0.60;;;;;;;10.28;100.00;97460.19;5040393;28;20567;-77
2020/12/24 11:16:28;;;;;;;1.13;0.57;;;;;;;10.35;100.00;97481.50;5046879;28;20231;-76
2020/12/24 11:18:55;;;;;;;0.50;0.20;;;;;;;10.19;100.00;97463.31;5031905;28;20224;-76
2020/12/24 11:21:22;;;;;;;0.50;0.40;;;;;;;10.15;100.00;97467.44;5035942;28;20205;-75
2020/12/24 11:23:50;;;;;;;0.20;0.20;;;;;;;10.18;100.00;97459.81;5033869;28;20208;-75
2020/12/24 11:26:21;;;;;;;0.53;0.30;;;;;;;10.28;100.00;97449.53;5034673;28;20641;-76
2020/12/24 11:28:48;;;;;;;1.23;0.40;;;;;;;10.28;100.00;97454.84;5031892;28;20222;-77
2020/12/24 11:31:22;;;;;;;0.60;0.40;;;;;;;10.38;100.00;97438.38;5035001;28;20204;-79
2020/12/24 11:33:49;;;;;;;2.70;1.00;;;;;;;10.32;100.00;97440.06;5038848;28;20317;-78
2020/12/24 11:36:17;;;;;;;0.60;0.33;;;;;;;10.18;100.00;97435.00;5036306;28;20215;-81